LFTW/FNI METAR and TAF weather

Enter ICAO airport designator
Station Type Date Time Source
LFTW METAR 2020/09/19 01:30 UTC NOAA

LFTW 190130Z AUTO 12004KT 8000 NSC 21/20 Q1017


Station Type Date Time Source
LFTW Decoded METAR 2020/09/19 01:30 UTC NOAA

Nimes / Garons, France (LFTW) 43-45N 004-25E 96M
Sep 18, 2020 - 09:30 PM EDT / 2020.09.19 0130 UTC
Wind: from the ESE (120 degrees) at 5 MPH (4 KT):0
Visibility: 4 mile(s):0
Temperature: 69 F (21 C)
Dew Point: 68 F (20 C)
Relative Humidity: 94%
Pressure (altimeter): 30.03 in. Hg (1017 hPa)
ob: LFTW 190130Z AUTO 12004KT 8000 NSC 21/20 Q1017
cycle: 1

Station Type Date Time Source
LFTW TAF 2020/09/18 19:32 UTC NOAA

TAF LFTW 181900Z 1819/1915 CNL

Example: see airport list